Time;durP1;ratioP1;P1;durP2;ratioP2;P2;SDS_P1;SDS_P2;PMS_P1;PMS_P2;Temp;Humidity;BMP_temperature;BMP_pressure;BME280_temperature;BME280_humidity;BME280_pressure;Samples;Min_cycle;Max_cycle;Signal;HPM_P1;HPM_P2
2021/12/03 00:00:49;;;;;;;8.98;2.65;;;1.00;99.90;;;;;;5018272;28;20057;-82
2021/12/03 00:03:15;;;;;;;7.47;2.65;;;0.90;99.90;;;;;;5024101;28;20378;-82
2021/12/03 00:05:41;;;;;;;6.85;3.03;;;0.90;99.90;;;;;;5023657;28;20150;-82
2021/12/03 00:08:08;;;;;;;6.60;2.60;;;0.90;99.90;;;;;;5029724;28;20049;-82
2021/12/03 00:10:36;;;;;;;4.55;2.50;;;0.90;99.90;;;;;;5033750;28;20075;-82
2021/12/03 00:13:04;;;;;;;5.80;2.45;;;0.90;99.90;;;;;;5033825;28;20038;-82
2021/12/03 00:15:30;;;;;;;6.55;3.00;;;0.90;99.90;;;;;;5036438;28;20094;-82
2021/12/03 00:17:56;;;;;;;6.28;2.90;;;0.90;99.90;;;;;;5029016;28;20060;-81
2021/12/03 00:20:24;;;;;;;6.40;2.67;;;0.80;99.90;;;;;;5032778;28;20068;-82
2021/12/03 00:22:52;;;;;;;4.55;2.65;;;0.70;99.90;;;;;;5013096;28;20128;-80
2021/12/03 00:25:18;;;;;;;6.10;2.63;;;0.80;99.90;;;;;;5014298;28;20178;-83
2021/12/03 00:27:44;;;;;;;5.80;2.97;;;0.90;99.90;;;;;;5030097;28;20041;-82
2021/12/03 00:30:13;;;;;;;5.13;2.70;;;0.80;99.90;;;;;;5029094;28;20033;-82
2021/12/03 00:32:39;;;;;;;7.18;3.00;;;0.80;99.90;;;;;;5034025;28;20204;-82
2021/12/03 00:35:06;;;;;;;6.13;2.60;;;0.80;99.90;;;;;;5029258;28;20794;-82
2021/12/03 00:37:31;;;;;;;4.63;2.63;;;0.90;99.90;;;;;;5019651;28;20155;-83
2021/12/03 00:39:58;;;;;;;9.07;3.22;;;0.90;99.90;;;;;;5032168;28;20108;-82
2021/12/03 00:42:26;;;;;;;7.63;2.58;;;0.80;99.90;;;;;;5036675;28;20493;-83
2021/12/03 00:44:55;;;;;;;7.78;3.45;;;0.80;99.90;;;;;;5035374;28;20106;-82
2021/12/03 00:47:22;;;;;;;7.90;3.05;;;0.80;99.90;;;;;;5019676;28;20048;-82
2021/12/03 00:49:51;;;;;;;7.32;3.63;;;0.90;99.90;;;;;;5012860;28;20037;-82
2021/12/03 00:52:18;;;;;;;5.90;2.80;;;0.80;99.90;;;;;;5050877;28;20076;-82
2021/12/03 00:54:46;;;;;;;4.60;2.90;;;1.00;99.90;;;;;;5020269;28;20064;-82
2021/12/03 00:57:14;;;;;;;9.48;2.90;;;1.00;99.90;;;;;;5034782;28;21049;-82
2021/12/03 00:59:40;;;;;;;5.00;2.67;;;0.90;99.90;;;;;;5033170;28;20033;-82
2021/12/03 01:02:06;;;;;;;7.32;2.85;;;1.00;99.90;;;;;;5036633;28;20042;-82
2021/12/03 01:04:32;;;;;;;6.13;2.75;;;1.00;99.90;;;;;;5027655;28;20069;-82
2021/12/03 01:06:58;;;;;;;6.50;2.78;;;1.00;99.90;;;;;;5033061;28;20068;-83
2021/12/03 01:09:26;;;;;;;6.90;2.60;;;1.10;99.90;;;;;;5018351;28;20045;-82
2021/12/03 01:11:52;;;;;;;3.78;2.55;;;1.10;99.90;;;;;;5031364;28;20079;-82
2021/12/03 01:14:19;;;;;;;4.53;2.85;;;1.20;99.90;;;;;;5031261;28;20032;-82
2021/12/03 01:16:45;;;;;;;7.20;3.53;;;1.20;99.90;;;;;;5019051;28;20111;-82
2021/12/03 01:19:11;;;;;;;8.45;2.95;;;1.30;99.90;;;;;;5034575;28;20476;-82
2021/12/03 01:21:38;;;;;;;7.47;2.88;;;1.30;99.90;;;;;;5029487;28;20091;-82
2021/12/03 01:24:04;;;;;;;5.55;2.92;;;1.30;99.90;;;;;;5032364;28;20112;-82
2021/12/03 01:26:32;;;;;;;8.75;3.08;;;1.40;99.90;;;;;;5015969;28;20037;-82
2021/12/03 01:28:58;;;;;;;6.35;3.30;;;1.40;99.90;;;;;;5018696;28;20053;-82
2021/12/03 01:31:24;;;;;;;6.93;3.30;;;1.40;99.90;;;;;;5021169;28;20037;-82
2021/12/03 01:33:50;;;;;;;9.20;3.55;;;1.40;99.90;;;;;;5020171;28;20055;-82
2021/12/03 01:36:16;;;;;;;9.05;3.22;;;1.50;99.90;;;;;;5017425;28;20507;-82
2021/12/03 01:38:43;;;;;;;7.93;4.20;;;1.40;99.90;;;;;;5029506;28;20037;-82
2021/12/03 01:41:09;;;;;;;9.25;3.42;;;1.40;99.90;;;;;;5031344;28;20045;-82
2021/12/03 01:43:35;;;;;;;9.93;4.20;;;1.40;99.90;;;;;;5020653;28;20111;-81
2021/12/03 01:46:07;;;;;;;9.00;4.15;;;1.50;99.90;;;;;;5030476;28;20120;-82
2021/12/03 01:48:33;;;;;;;7.78;4.75;;;1.50;99.90;;;;;;5030799;28;20045;-82
2021/12/03 01:51:05;;;;;;;8.13;4.22;;;1.40;99.90;;;;;;5017786;28;20578;-82
2021/12/03 01:53:36;;;;;;;8.60;4.53;;;1.50;99.90;;;;;;5030893;28;20036;-82
2021/12/03 01:56:07;;;;;;;10.43;5.13;;;1.50;99.90;;;;;;5018870;28;20041;-82
2021/12/03 01:58:33;;;;;;;8.35;4.68;;;1.60;99.90;;;;;;5013483;28;20040;-82
2021/12/03 02:01:03;;;;;;;9.10;4.95;;;1.50;99.90;;;;;;5018006;28;20021;-82
2021/12/03 02:03:32;;;;;;;11.45;5.18;;;1.60;99.90;;;;;;5026964;28;20430;-82
2021/12/03 02:05:59;;;;;;;9.82;5.32;;;1.50;99.90;;;;;;5018951;28;20049;-81
2021/12/03 02:08:25;;;;;;;9.65;5.32;;;1.70;99.90;;;;;;5018296;28;20494;-82
2021/12/03 02:10:51;;;;;;;14.63;6.25;;;1.70;99.90;;;;;;5016093;28;20045;-82
2021/12/03 02:13:17;;;;;;;11.55;6.22;;;1.50;99.90;;;;;;5018702;28;20059;-81
2021/12/03 02:15:44;;;;;;;10.10;5.95;;;1.70;99.90;;;;;;5029178;28;20440;-82
2021/12/03 02:18:11;;;;;;;12.20;5.88;;;1.60;99.90;;;;;;5035249;28;20036;-82
2021/12/03 02:20:46;;;;;;;10.95;6.22;;;1.60;99.90;;;;;;5015739;28;20498;-82
2021/12/03 02:23:13;;;;;;;9.82;5.85;;;1.70;99.90;;;;;;5031464;28;20119;-81
2021/12/03 02:25:39;;;;;;;10.80;5.97;;;1.70;99.90;;;;;;5018726;28;20444;-82
2021/12/03 02:28:05;;;;;;;12.52;6.53;;;1.70;99.90;;;;;;5016546;28;20086;-81
2021/12/03 02:30:30;;;;;;;10.35;5.55;;;1.70;99.90;;;;;;5018923;28;20040;-82
2021/12/03 02:32:56;;;;;;;10.05;5.90;;;1.70;99.90;;;;;;5023136;28;20101;-82
2021/12/03 02:35:24;;;;;;;15.07;6.43;;;1.70;99.90;;;;;;5017984;28;20080;-81
2021/12/03 02:37:51;;;;;;;11.52;6.10;;;1.80;99.90;;;;;;5018467;28;20041;-81
2021/12/03 02:40:18;;;;;;;12.23;6.10;;;1.70;99.90;;;;;;5030616;28;20523;-81
2021/12/03 02:42:48;;;;;;;12.98;6.32;;;1.80;99.90;;;;;;5030524;28;20302;-81
2021/12/03 02:45:14;;;;;;;13.77;6.65;;;1.70;99.90;;;;;;5010959;28;20441;-81
2021/12/03 02:47:41;;;;;;;14.07;7.45;;;1.70;99.90;;;;;;5017902;28;20038;-82
2021/12/03 02:50:08;;;;;;;17.50;8.40;;;1.60;99.90;;;;;;5014016;28;20092;-82
2021/12/03 02:52:34;;;;;;;19.80;9.85;;;1.60;99.90;;;;;;5019287;28;20567;-81
2021/12/03 02:55:04;;;;;;;19.20;11.32;;;1.70;99.90;;;;;;5036435;28;20041;-81
2021/12/03 02:57:30;;;;;;;22.92;11.93;;;1.60;99.90;;;;;;5018872;28;20550;-81
2021/12/03 02:59:56;;;;;;;26.30;14.77;;;1.70;99.90;;;;;;5012349;28;20151;-82
2021/12/03 03:02:21;;;;;;;25.02;15.35;;;1.70;99.90;;;;;;5019139;28;20121;-82
2021/12/03 03:04:48;;;;;;;28.13;16.63;;;1.60;99.90;;;;;;5016178;28;20110;-82
2021/12/03 03:07:14;;;;;;;31.10;17.65;;;1.60;99.90;;;;;;5029654;28;20045;-82
2021/12/03 03:09:44;;;;;;;32.85;18.88;;;1.60;99.90;;;;;;5010811;28;20071;-81
2021/12/03 03:12:10;;;;;;;35.50;20.65;;;1.70;99.90;;;;;;5030680;28;20045;-82
2021/12/03 03:14:42;;;;;;;33.83;21.02;;;1.60;99.90;;;;;;5032216;28;20033;-81
2021/12/03 03:17:11;;;;;;;32.85;20.65;;;1.60;99.90;;;;;;5031650;28;20044;-82
2021/12/03 03:19:36;;;;;;;35.45;20.73;;;1.60;99.90;;;;;;5033087;28;20032;-82
2021/12/03 03:22:02;;;;;;;36.25;22.70;;;1.60;99.90;;;;;;5029938;28;20499;-82
2021/12/03 03:24:28;;;;;;;39.92;22.23;;;1.60;99.90;;;;;;5012525;28;20342;-81
2021/12/03 03:26:54;;;;;;;34.85;22.33;;;1.60;99.90;;;;;;5016507;28;20041;-81
2021/12/03 03:29:20;;;;;;;34.13;22.73;;;1.60;99.90;;;;;;5031403;28;20504;-82
2021/12/03 03:31:46;;;;;;;35.05;23.17;;;1.60;99.90;;;;;;5031531;28;20448;-82
2021/12/03 03:34:15;;;;;;;36.65;22.58;;;1.60;99.90;;;;;;5031268;28;20569;-82
2021/12/03 03:36:44;;;;;;;37.17;22.08;;;1.70;99.90;;;;;;5034362;28;20056;-82
2021/12/03 03:39:12;;;;;;;31.92;21.00;;;1.60;99.90;;;;;;5042677;28;20064;-81
2021/12/03 03:41:40;;;;;;;32.00;21.52;;;1.60;99.90;;;;;;5016816;28;20033;-81
2021/12/03 03:44:06;;;;;;;37.13;23.50;;;1.50;99.90;;;;;;5038031;28;20056;-81
2021/12/03 03:46:32;;;;;;;33.95;21.27;;;1.60;99.90;;;;;;5022371;28;20038;-82
2021/12/03 03:48:58;;;;;;;34.03;21.70;;;1.60;99.90;;;;;;5029852;28;20032;-82
2021/12/03 03:51:23;;;;;;;35.55;21.77;;;1.60;99.90;;;;;;5034155;28;20044;-81
2021/12/03 03:53:49;;;;;;;30.08;19.77;;;1.70;99.90;;;;;;5019920;28;20151;-82
2021/12/03 03:56:15;;;;;;;32.35;21.38;;;1.70;99.90;;;;;;5031434;28;20052;-81
2021/12/03 03:58:41;;;;;;;27.38;20.35;;;1.70;99.90;;;;;;5030898;28;20037;-81
2021/12/03 04:01:12;;;;;;;32.05;20.45;;;1.70;99.90;;;;;;5033126;28;20488;-82
2021/12/03 04:03:38;;;;;;;30.17;19.17;;;1.60;99.90;;;;;;5032978;28;20115;-81
2021/12/03 04:06:04;;;;;;;28.08;20.17;;;1.70;99.90;;;;;;5016508;28;20091;-81
2021/12/03 04:08:29;;;;;;;27.13;20.25;;;1.60;99.90;;;;;;5030239;28;20049;-82
2021/12/03 04:11:03;;;;;;;28.75;20.35;;;1.70;99.90;;;;;;5037454;28;20041;-81
2021/12/03 04:13:29;;;;;;;27.17;18.70;;;1.60;99.90;;;;;;5033298;28;20101;-81
2021/12/03 04:15:54;;;;;;;23.77;17.42;;;1.70;99.90;;;;;;5033784;28;20495;-82
2021/12/03 04:18:20;;;;;;;28.40;18.45;;;1.70;99.90;;;;;;5020177;28;20052;-82
2021/12/03 04:20:46;;;;;;;28.35;18.85;;;1.60;99.90;;;;;;5033484;28;20033;-81
2021/12/03 04:23:17;;;;;;;23.48;18.00;;;1.60;99.90;;;;;;5018710;28;20045;-81
2021/12/03 04:25:42;;;;;;;25.33;18.10;;;1.60;99.90;;;;;;5031353;28;20045;-81
2021/12/03 04:28:08;;;;;;;28.95;19.20;;;1.60;99.90;;;;;;5018470;28;20048;-81
2021/12/03 04:30:34;;;;;;;26.25;18.02;;;1.60;99.90;;;;;;5030882;28;20033;-82
2021/12/03 04:33:00;;;;;;;26.40;18.02;;;1.60;99.90;;;;;;5030616;28;20053;-81
2021/12/03 04:35:28;;;;;;;25.40;17.63;;;1.70;99.90;;;;;;5017432;28;20119;-81
2021/12/03 04:37:55;;;;;;;23.52;17.77;;;1.60;99.90;;;;;;5036906;28;20433;-82
2021/12/03 04:40:21;;;;;;;24.85;17.45;;;1.50;99.90;;;;;;5035274;28;20060;-81
2021/12/03 04:42:48;;;;;;;25.63;17.45;;;1.50;99.90;;;;;;5037729;28;20041;-81
2021/12/03 04:45:18;;;;;;;25.08;17.60;;;1.50;99.90;;;;;;5015560;28;20636;-81
2021/12/03 04:47:44;;;;;;;24.77;18.45;;;1.60;99.90;;;;;;5032388;28;20116;-82
2021/12/03 04:50:12;;;;;;;25.75;17.13;;;1.50;99.90;;;;;;5020308;28;20041;-81
2021/12/03 04:52:39;;;;;;;23.30;17.70;;;1.60;99.90;;;;;;5019208;28;20490;-81
2021/12/03 04:55:06;;;;;;;24.02;18.05;;;1.60;99.90;;;;;;5030828;28;20107;-82
2021/12/03 04:57:32;;;;;;;23.45;17.20;;;1.50;99.90;;;;;;5031478;28;20040;-81
2021/12/03 04:59:58;;;;;;;23.13;17.77;;;1.50;99.90;;;;;;5036246;28;20029;-81
2021/12/03 05:02:25;;;;;;;28.63;18.48;;;1.40;99.90;;;;;;5015900;28;20464;-81
2021/12/03 05:04:52;;;;;;;24.45;18.30;;;1.50;99.90;;;;;;5030961;28;20079;-81
2021/12/03 05:09:53;;;;;;;26.45;17.58;;;1.50;99.90;;;;;;5031538;28;20479;-82
2021/12/03 05:12:19;;;;;;;24.40;18.10;;;1.40;99.90;;;;;;5038501;28;20044;-81
2021/12/03 05:14:44;;;;;;;23.00;17.83;;;1.40;99.90;;;;;;5015415;28;20036;-82
2021/12/03 05:17:10;;;;;;;23.73;18.10;;;1.40;99.90;;;;;;5019246;28;20033;-81
2021/12/03 05:19:36;;;;;;;25.33;19.08;;;1.40;99.90;;;;;;5017092;28;20044;-81
2021/12/03 05:22:01;;;;;;;26.65;18.70;;;1.40;99.90;;;;;;5019834;28;20040;-81
2021/12/03 05:24:27;;;;;;;22.58;18.20;;;1.50;99.90;;;;;;5034540;28;20060;-81
2021/12/03 05:26:53;;;;;;;24.63;18.73;;;1.40;99.90;;;;;;5034388;28;20044;-81
2021/12/03 05:29:20;;;;;;;24.13;18.23;;;1.50;99.90;;;;;;5019309;28;20036;-81
2021/12/03 05:31:45;;;;;;;26.85;18.48;;;1.50;99.90;;;;;;5017518;28;20041;-81
2021/12/03 05:34:13;;;;;;;25.63;19.02;;;1.50;99.90;;;;;;5013049;28;20562;-81
2021/12/03 05:36:39;;;;;;;27.98;18.90;;;1.40;99.90;;;;;;5036387;28;20073;-81
2021/12/03 05:39:06;;;;;;;24.70;17.92;;;1.50;99.90;;;;;;5032429;28;20443;-81
2021/12/03 05:41:33;;;;;;;28.83;20.08;;;1.40;99.90;;;;;;5036919;28;20044;-81
2021/12/03 05:43:59;;;;;;;24.85;18.08;;;1.50;99.90;;;;;;5035286;28;20515;-81
2021/12/03 05:46:25;;;;;;;27.73;18.30;;;1.60;99.90;;;;;;5019505;28;20068;-82
2021/12/03 05:48:50;;;;;;;26.98;18.98;;;1.60;99.90;;;;;;5020334;28;20086;-81
2021/12/03 05:51:16;;;;;;;26.30;17.60;;;1.60;99.90;;;;;;5029748;28;20052;-81
2021/12/03 05:53:42;;;;;;;24.10;17.77;;;1.50;99.90;;;;;;5031804;28;20041;-81
2021/12/03 05:56:07;;;;;;;25.30;18.35;;;1.60;99.90;;;;;;5028796;28;20300;-82
2021/12/03 05:58:33;;;;;;;24.48;17.50;;;1.60;99.90;;;;;;5020275;28;20044;-81
2021/12/03 06:00:59;;;;;;;27.23;19.45;;;1.60;99.90;;;;;;5033171;28;20037;-81
2021/12/03 06:03:24;;;;;;;25.45;18.55;;;1.60;99.90;;;;;;5024466;28;20037;-81
2021/12/03 06:05:50;;;;;;;28.40;18.40;;;1.70;99.90;;;;;;5028755;28;20037;-81
2021/12/03 06:08:16;;;;;;;26.70;18.40;;;1.70;99.90;;;;;;5027328;28;20077;-81
2021/12/03 06:10:42;;;;;;;27.05;18.60;;;1.80;99.90;;;;;;5012550;28;20393;-81
2021/12/03 06:13:11;;;;;;;29.25;18.75;;;1.70;99.90;;;;;;5034788;28;20384;-81
2021/12/03 06:15:36;;;;;;;30.25;18.48;;;1.70;99.90;;;;;;5012377;28;20076;-81
2021/12/03 06:18:03;;;;;;;25.52;18.35;;;1.70;99.90;;;;;;5016675;28;20362;-81
2021/12/03 06:20:29;;;;;;;27.83;19.45;;;1.70;99.90;;;;;;5018116;28;20279;-81
2021/12/03 06:22:55;;;;;;;25.73;18.15;;;1.80;99.90;;;;;;5019852;28;20056;-81
2021/12/03 06:25:21;;;;;;;22.52;17.60;;;1.70;99.90;;;;;;5016062;28;20364;-81
2021/12/03 06:27:50;;;;;;;21.80;17.25;;;1.80;99.90;;;;;;5035579;28;20079;-81
2021/12/03 06:30:19;;;;;;;24.40;16.45;;;1.90;99.90;;;;;;5015001;28;20064;-81
2021/12/03 06:32:45;;;;;;;26.75;16.38;;;1.80;99.90;;;;;;5035552;28;20298;-81
2021/12/03 06:35:13;;;;;;;20.90;15.70;;;1.80;99.90;;;;;;5014930;28;20447;-81
2021/12/03 06:37:39;;;;;;;23.50;16.75;;;1.90;99.90;;;;;;5036294;28;20041;-81
2021/12/03 06:40:12;;;;;;;24.27;15.77;;;1.90;99.90;;;;;;5014642;28;20867;-82
2021/12/03 06:42:38;;;;;;;20.92;15.15;;;1.90;99.90;;;;;;5037947;28;20337;-81
2021/12/03 06:45:06;;;;;;;20.08;15.15;;;2.00;99.90;;;;;;5017100;28;20034;-81
2021/12/03 06:47:35;;;;;;;21.73;14.55;;;1.90;99.90;;;;;;5034378;28;20049;-81
2021/12/03 06:50:03;;;;;;;20.83;14.05;;;2.00;99.90;;;;;;5027986;28;20145;-81
2021/12/03 06:52:29;;;;;;;17.92;14.45;;;2.00;99.90;;;;;;5013793;28;20079;-82
2021/12/03 06:54:58;;;;;;;20.38;13.63;;;2.10;99.90;;;;;;5017811;28;20041;-81
2021/12/03 06:57:24;;;;;;;20.48;13.85;;;2.10;99.90;;;;;;5026071;28;20037;-81
2021/12/03 06:59:50;;;;;;;19.38;14.45;;;2.10;99.90;;;;;;5016379;28;20114;-81
2021/12/03 07:02:15;;;;;;;21.55;14.38;;;2.20;99.90;;;;;;5024731;28;20594;-81
2021/12/03 07:04:43;;;;;;;24.63;14.80;;;2.20;99.90;;;;;;5028805;28;20109;-81
2021/12/03 07:07:10;;;;;;;20.23;12.98;;;2.10;99.90;;;;;;5008488;28;20230;-81
2021/12/03 07:09:36;;;;;;;22.65;14.00;;;2.00;99.90;;;;;;5021070;28;20356;-81
2021/12/03 07:12:02;;;;;;;20.25;14.02;;;2.10;99.90;;;;;;5020306;28;20069;-82
2021/12/03 07:14:28;;;;;;;17.20;12.85;;;2.10;99.90;;;;;;5021634;28;20472;-81
2021/12/03 07:16:58;;;;;;;17.30;11.98;;;2.10;99.90;;;;;;5018286;28;20045;-81
2021/12/03 07:19:24;;;;;;;20.83;13.25;;;2.10;99.90;;;;;;5011537;28;20036;-81
2021/12/03 07:21:50;;;;;;;18.20;12.18;;;2.10;99.90;;;;;;5032650;28;20068;-81
2021/12/03 07:24:15;;;;;;;14.02;10.90;;;2.10;99.90;;;;;;5034452;28;20045;-81
2021/12/03 07:26:41;;;;;;;16.85;12.27;;;2.20;99.90;;;;;;5025699;28;20033;-81
2021/12/03 07:29:07;;;;;;;18.52;13.13;;;2.10;99.90;;;;;;5034840;28;20037;-81
2021/12/03 07:31:35;;;;;;;17.83;10.98;;;2.20;99.90;;;;;;5033405;28;20037;-81
2021/12/03 07:34:01;;;;;;;18.40;11.63;;;2.20;99.90;;;;;;5020164;28;20056;-81
2021/12/03 07:36:26;;;;;;;19.75;10.82;;;2.20;99.90;;;;;;5014386;28;20037;-81
2021/12/03 07:38:52;;;;;;;16.33;11.13;;;2.20;99.90;;;;;;5036153;28;20051;-81
2021/12/03 07:41:18;;;;;;;18.00;10.43;;;2.30;99.90;;;;;;5020049;28;20060;-81
2021/12/03 07:43:44;;;;;;;15.65;8.65;;;2.30;99.90;;;;;;5039079;28;20049;-81
2021/12/03 07:46:09;;;;;;;13.15;9.32;;;2.30;99.90;;;;;;5017002;28;20042;-81
2021/12/03 07:48:36;;;;;;;21.08;10.02;;;2.40;99.90;;;;;;5032810;28;20469;-81
2021/12/03 07:51:02;;;;;;;14.10;9.23;;;2.40;99.90;;;;;;5030323;28;20116;-81
2021/12/03 07:53:27;;;;;;;12.45;9.10;;;2.40;99.90;;;;;;5032094;28;20049;-81
2021/12/03 07:55:54;;;;;;;15.68;9.77;;;2.50;99.90;;;;;;5027305;28;20090;-81
2021/12/03 07:58:20;;;;;;;17.80;9.82;;;2.40;99.90;;;;;;5032698;28;20543;-81
2021/12/03 08:00:47;;;;;;;18.95;9.65;;;2.40;99.90;;;;;;5020782;28;20062;-81
2021/12/03 08:03:13;;;;;;;14.63;10.40;;;2.30;99.90;;;;;;5032174;28;20122;-81
2021/12/03 08:05:39;;;;;;;21.40;10.07;;;2.50;99.90;;;;;;5033169;28;20068;-81
2021/12/03 08:08:06;;;;;;;17.20;10.02;;;2.50;99.90;;;;;;5036012;28;20400;-81
2021/12/03 08:10:34;;;;;;;17.08;9.30;;;2.50;99.90;;;;;;5021127;28;20311;-81
2021/12/03 08:13:00;;;;;;;17.60;9.20;;;2.50;99.90;;;;;;5019308;28;20121;-81
2021/12/03 08:15:26;;;;;;;19.95;10.93;;;2.50;99.90;;;;;;5034681;28;20053;-81
2021/12/03 08:17:51;;;;;;;18.42;11.13;;;2.50;99.90;;;;;;5017202;28;20428;-81
2021/12/03 08:20:18;;;;;;;17.63;10.43;;;2.60;99.90;;;;;;5029325;28;20034;-81
2021/12/03 08:22:46;;;;;;;17.45;9.50;;;2.60;99.90;;;;;;5034534;28;20041;-81
2021/12/03 08:25:12;;;;;;;16.27;9.88;;;2.60;99.90;;;;;;5040621;28;20171;-81
2021/12/03 08:27:40;;;;;;;17.70;10.45;;;2.70;99.90;;;;;;5028589;28;20036;-81
2021/12/03 08:30:09;;;;;;;19.25;10.43;;;2.70;99.90;;;;;;5040833;28;20037;-81
2021/12/03 08:32:34;;;;;;;17.60;9.18;;;2.70;99.90;;;;;;5043147;28;20059;-81
2021/12/03 08:35:04;;;;;;;18.23;9.63;;;2.70;99.90;;;;;;5026079;28;20492;-81
2021/12/03 08:37:29;;;;;;;18.90;9.98;;;2.80;99.90;;;;;;5034756;28;20278;-81
2021/12/03 08:39:55;;;;;;;18.35;9.57;;;2.80;99.90;;;;;;5022632;28;20406;-81
2021/12/03 08:42:21;;;;;;;17.25;9.43;;;2.80;99.90;;;;;;5032965;28;20037;-81
2021/12/03 08:44:47;;;;;;;18.00;10.02;;;2.90;99.90;;;;;;5034585;28;20456;-81
2021/12/03 08:47:13;;;;;;;19.17;10.95;;;3.00;99.90;;;;;;5022146;28;20101;-81
2021/12/03 08:49:46;;;;;;;20.05;10.50;;;2.90;99.90;;;;;;5028695;28;20466;-82
2021/12/03 08:52:45;;;;;;;18.67;10.40;;;3.00;99.90;;;;;;5027865;28;20052;-81
2021/12/03 08:55:04;;;;;;;21.40;11.23;;;3.00;99.90;;;;;;5029677;28;20060;-82
2021/12/03 08:57:32;;;;;;;21.90;13.00;;;3.10;99.90;;;;;;5036705;28;20028;-82
2021/12/03 09:00:08;;;;;;;24.73;12.73;;;3.00;99.90;;;;;;5031286;28;20029;-81
2021/12/03 09:02:34;;;;;;;26.27;14.10;;;3.00;99.90;;;;;;5013282;28;20148;-82
2021/12/03 09:04:59;;;;;;;25.55;14.55;;;3.10;99.90;;;;;;5029160;28;20675;-82
2021/12/03 09:07:25;;;;;;;20.90;14.07;;;3.20;99.90;;;;;;5035116;28;20275;-82
2021/12/03 09:09:51;;;;;;;23.15;14.43;;;3.30;99.90;;;;;;5033389;28;20189;-82
2021/12/03 09:12:17;;;;;;;26.00;15.25;;;3.30;99.90;;;;;;5037887;28;20045;-82
2021/12/03 09:14:49;;;;;;;31.52;16.35;;;3.30;99.90;;;;;;5008078;28;20346;-82
2021/12/03 09:22:41;;;;;;;30.35;17.55;;;3.40;99.90;;;;;;5034125;28;20041;-82
2021/12/03 09:25:15;;;;;;;31.20;17.55;;;3.40;99.90;;;;;;5017725;28;20381;-82
2021/12/03 09:27:41;;;;;;;25.87;16.70;;;3.40;99.90;;;;;;5038409;28;20041;-83
2021/12/03 09:30:10;;;;;;;30.27;17.30;;;3.50;99.90;;;;;;5027221;28;20036;-82
2021/12/03 09:32:41;;;;;;;30.00;16.45;;;3.50;99.90;;;;;;5033658;28;20065;-82
2021/12/03 09:35:09;;;;;;;31.48;17.15;;;3.50;99.90;;;;;;5029639;28;20071;-83
2021/12/03 09:37:35;;;;;;;25.80;16.65;;;3.60;99.90;;;;;;5020870;28;20043;-82
2021/12/03 09:40:06;;;;;;;28.35;17.00;;;3.60;99.90;;;;;;5031711;28;20029;-82
2021/12/03 09:42:35;;;;;;;28.27;17.17;;;3.70;99.90;;;;;;5014054;28;20456;-82
2021/12/03 09:45:01;;;;;;;28.60;17.27;;;3.60;99.90;;;;;;5029920;28;20435;-82
2021/12/03 09:47:27;;;;;;;26.17;15.43;;;3.60;99.90;;;;;;5033260;28;20041;-82
2021/12/03 09:49:56;;;;;;;30.23;17.08;;;3.70;99.90;;;;;;5035483;28;20075;-82
2021/12/03 09:55:11;;;;;;;27.50;16.35;;;3.70;99.90;;;;;;5034749;28;20080;-81
2021/12/03 09:57:51;;;;;;;28.67;16.33;;;3.70;99.90;;;;;;5020583;28;20392;-83
2021/12/03 10:00:38;;;;;;;27.15;17.15;;;3.80;99.90;;;;;;5017003;28;20112;-83
2021/12/03 10:16:55;;;;;;;28.35;16.10;;;3.90;99.90;;;;;;5032728;28;20132;-83
2021/12/03 10:19:36;;;;;;;26.50;15.63;;;3.90;99.90;;;;;;5010865;28;20037;-82
2021/12/03 10:25:10;;;;;;;20.83;13.25;;;3.90;99.90;;;;;;5046159;28;20041;-83
2021/12/03 10:41:38;;;;;;;19.55;9.95;;;4.10;99.90;;;;;;5023864;28;20651;-82
2021/12/03 10:44:14;;;;;;;17.98;9.30;;;4.10;99.90;;;;;;5034085;28;20034;-82
2021/12/03 10:49:29;;;;;;;18.70;9.18;;;4.20;99.90;;;;;;5030664;28;20107;-82
2021/12/03 11:13:45;;;;;;;15.63;6.88;;;4.20;99.90;;;;;;5040822;28;20061;-82
2021/12/03 11:55:52;;;;;;;15.63;5.75;;;4.20;99.90;;;;;;5032576;28;20518;-82
2021/12/03 12:08:07;;;;;;;15.32;5.38;;;4.10;99.90;;;;;;5033416;28;20041;-82
2021/12/03 12:57:01;;;;;;;9.15;6.53;;;3.80;99.90;;;;;;4976024;28;20081;-82
2021/12/03 13:16:02;;;;;;;12.90;7.15;;;3.80;99.90;;;;;;5033018;28;20504;-82
2021/12/03 14:08:37;;;;;;;11.73;6.57;;;4.00;99.90;;;;;;5014908;28;20460;-82
2021/12/03 14:11:56;;;;;;;9.10;5.60;;;4.00;99.90;;;;;;5001882;28;20531;-82
2021/12/03 14:42:02;;;;;;;13.70;6.53;;;4.30;99.90;;;;;;5029244;28;20194;-82
2021/12/03 14:55:36;;;;;;;10.50;7.10;;;4.30;99.90;;;;;;5048867;28;20391;-82
2021/12/03 14:58:11;;;;;;;11.45;6.72;;;4.40;99.90;;;;;;5029008;28;20307;-82
2021/12/03 15:03:26;;;;;;;11.27;7.22;;;4.40;99.90;;;;;;5035447;28;20485;-82
2021/12/03 15:08:49;;;;;;;12.20;6.85;;;4.50;99.90;;;;;;5029625;28;20122;-82
2021/12/03 15:12:40;;;;;;;15.73;7.55;;;4.40;99.90;;;;;;5018722;28;20041;-82
2021/12/03 15:22:47;;;;;;;9.98;8.13;;;4.50;99.90;;;;;;5037291;28;20045;-82
2021/12/03 15:25:35;;;;;;;11.00;8.20;;;4.50;99.90;;;;;;5031692;28;20111;-82
2021/12/03 15:30:48;;;;;;;11.30;8.80;;;4.50;99.90;;;;;;5036301;28;20040;-82
2021/12/03 15:33:29;;;;;;;12.45;8.43;;;4.50;99.90;;;;;;5035618;28;20099;-82
2021/12/03 15:36:03;;;;;;;12.05;8.63;;;4.50;99.90;;;;;;5017170;28;20049;-82
2021/12/03 15:38:51;;;;;;;11.80;8.73;;;4.50;99.90;;;;;;5020285;28;20414;-82
2021/12/03 15:52:04;;;;;;;11.23;7.97;;;4.60;99.90;;;;;;5027406;28;20172;-82
2021/12/03 16:08:25;;;;;;;12.43;10.63;;;4.60;99.90;;;;;;5036098;28;20051;-83
2021/12/03 16:46:07;;;;;;;21.50;16.15;;;4.50;99.90;;;;;;5031461;28;20068;-82
2021/12/03 16:51:23;;;;;;;19.25;14.77;;;4.40;99.90;;;;;;5051437;28;20040;-82
2021/12/03 16:53:52;;;;;;;17.60;13.77;;;4.40;99.90;;;;;;5020083;28;20029;-82
2021/12/03 16:56:22;;;;;;;20.83;15.70;;;4.50;99.90;;;;;;5032086;28;20034;-82
2021/12/03 16:58:48;;;;;;;22.55;16.48;;;4.50;99.90;;;;;;5038240;28;20099;-82
2021/12/03 17:01:32;;;;;;;21.40;15.68;;;4.50;99.90;;;;;;5021601;28;20029;-82
2021/12/03 17:23:48;;;;;;;22.05;16.10;;;4.50;99.90;;;;;;5015214;28;20034;-82
2021/12/03 17:56:04;;;;;;;22.98;17.63;;;4.60;99.90;;;;;;5031355;28;20269;-82
2021/12/03 17:58:45;;;;;;;21.77;16.88;;;4.60;99.90;;;;;;5018031;28;20166;-82
2021/12/03 18:03:50;;;;;;;24.10;18.40;;;4.60;99.90;;;;;;5030177;28;20491;-82
2021/12/03 18:09:02;;;;;;;23.85;17.73;;;4.70;99.90;;;;;;5029851;28;20100;-82
2021/12/03 18:14:57;;;;;;;23.95;17.52;;;4.70;99.90;;;;;;5032510;28;20072;-82
2021/12/03 18:17:56;;;;;;;26.98;17.90;;;4.70;99.90;;;;;;5031253;28;20053;-82
2021/12/03 18:50:41;;;;;;;28.77;21.00;;;4.70;99.90;;;;;;5026311;28;20191;-82
2021/12/03 18:53:03;;;;;;;28.70;19.90;;;4.80;99.90;;;;;;5027962;28;20416;-82
2021/12/03 18:55:38;;;;;;;30.10;21.58;;;4.70;99.90;;;;;;5031627;28;20055;-82
2021/12/03 18:58:06;;;;;;;27.88;19.92;;;4.80;99.90;;;;;;5020420;28;20056;-82
2021/12/03 19:00:35;;;;;;;28.63;20.70;;;4.70;99.90;;;;;;5048914;28;20556;-82
2021/12/03 19:03:16;;;;;;;32.35;22.15;;;4.80;99.90;;;;;;5017560;28;20067;-82
2021/12/03 19:08:12;;;;;;;32.05;21.95;;;4.80;99.90;;;;;;5034024;28;20408;-82
2021/12/03 19:10:44;;;;;;;31.25;22.05;;;4.80;99.90;;;;;;5013533;28;20072;-82
2021/12/03 19:13:15;;;;;;;30.02;19.92;;;4.80;99.90;;;;;;5034152;28;20036;-82
2021/12/03 19:15:42;;;;;;;33.10;22.25;;;4.80;99.90;;;;;;5036059;28;20049;-82
2021/12/03 19:18:08;;;;;;;31.77;22.48;;;4.80;99.90;;;;;;5018940;28;20296;-82
2021/12/03 19:20:38;;;;;;;35.20;22.60;;;4.80;99.90;;;;;;5039318;28;20077;-82
2021/12/03 19:23:04;;;;;;;36.42;24.15;;;4.80;99.90;;;;;;5031505;28;20043;-82
2021/12/03 19:25:30;;;;;;;35.55;23.45;;;4.90;99.90;;;;;;5016026;28;20037;-82
2021/12/03 19:27:56;;;;;;;39.47;25.95;;;4.90;99.90;;;;;;5040596;28;20392;-82
2021/12/03 19:30:22;;;;;;;39.08;25.80;;;4.90;99.90;;;;;;5037898;28;20175;-82
2021/12/03 19:32:47;;;;;;;34.50;22.88;;;4.80;99.90;;;;;;5036756;28;20044;-82
2021/12/03 19:35:13;;;;;;;36.65;24.35;;;4.90;99.90;;;;;;5032222;28;20049;-82
2021/12/03 19:37:39;;;;;;;34.70;23.02;;;4.80;99.90;;;;;;5033715;28;20337;-82
2021/12/03 19:40:11;;;;;;;34.30;23.50;;;4.90;99.90;;;;;;5030553;28;20136;-82
2021/12/03 19:42:52;;;;;;;39.67;24.85;;;4.80;99.90;;;;;;5035062;28;20483;-82
2021/12/03 19:45:22;;;;;;;38.45;24.90;;;4.80;99.90;;;;;;5027900;28;20126;-82
2021/12/03 19:53:26;;;;;;;39.78;25.02;;;4.90;99.90;;;;;;5031780;28;20131;-82
2021/12/03 19:55:52;;;;;;;41.22;26.38;;;4.90;99.90;;;;;;4137870;28;10000906;-82
2021/12/03 19:58:20;;;;;;;42.67;27.38;;;4.90;99.90;;;;;;5016521;28;20044;-82
2021/12/03 20:00:47;;;;;;;39.05;24.27;;;4.90;99.90;;;;;;5029515;28;20037;-83
2021/12/03 20:03:13;;;;;;;36.50;24.10;;;4.90;99.90;;;;;;4971565;28;20523;-83
2021/12/03 20:05:39;;;;;;;44.03;26.70;;;5.00;99.90;;;;;;5032393;28;20248;-82
2021/12/03 20:08:07;;;;;;;40.67;23.98;;;4.90;99.90;;;;;;5052958;28;20447;-82
2021/12/03 20:10:38;;;;;;;40.60;25.70;;;4.90;99.90;;;;;;5024889;28;20048;-83